sensor_id;sensor_type;location;lat;lon;timestamp;P1;durP1;ratioP1;P2;durP2;ratioP2
8675;SDS011;4375;52.486;13.424;2023-03-21T00:01:50;31.43;;;10.13;;
8675;SDS011;4375;52.486;13.424;2023-03-21T00:04:17;24.83;;;9.80;;
8675;SDS011;4375;52.486;13.424;2023-03-21T00:06:43;25.17;;;9.63;;
8675;SDS011;4375;52.486;13.424;2023-03-21T00:09:09;21.90;;;9.10;;
8675;SDS011;4375;52.486;13.424;2023-03-21T00:11:36;23.47;;;9.83;;
8675;SDS011;4375;52.486;13.424;2023-03-21T00:14:05;22.20;;;9.30;;
8675;SDS011;4375;52.486;13.424;2023-03-21T00:16:38;26.77;;;9.53;;
8675;SDS011;4375;52.486;13.424;2023-03-21T00:19:04;21.00;;;8.40;;
8675;SDS011;4375;52.486;13.424;2023-03-21T00:21:30;28.40;;;10.00;;
8675;SDS011;4375;52.486;13.424;2023-03-21T00:23:57;23.57;;;9.80;;
8675;SDS011;4375;52.486;13.424;2023-03-21T00:26:24;23.83;;;9.73;;
8675;SDS011;4375;52.486;13.424;2023-03-21T00:28:50;25.40;;;9.40;;
8675;SDS011;4375;52.486;13.424;2023-03-21T00:31:16;24.03;;;9.33;;
8675;SDS011;4375;52.486;13.424;2023-03-21T00:33:42;21.73;;;8.97;;
8675;SDS011;4375;52.486;13.424;2023-03-21T00:36:08;24.30;;;9.17;;
8675;SDS011;4375;52.486;13.424;2023-03-21T00:38:35;25.90;;;9.33;;
8675;SDS011;4375;52.486;13.424;2023-03-21T00:41:05;26.20;;;10.37;;
8675;SDS011;4375;52.486;13.424;2023-03-21T00:43:33;25.10;;;9.83;;
8675;SDS011;4375;52.486;13.424;2023-03-21T00:45:59;24.50;;;9.40;;
8675;SDS011;4375;52.486;13.424;2023-03-21T00:48:25;27.17;;;10.30;;
8675;SDS011;4375;52.486;13.424;2023-03-21T00:50:52;27.53;;;11.00;;
8675;SDS011;4375;52.486;13.424;2023-03-21T00:53:21;26.03;;;9.23;;
8675;SDS011;4375;52.486;13.424;2023-03-21T00:55:47;26.20;;;9.87;;
8675;SDS011;4375;52.486;13.424;2023-03-21T00:58:14;24.20;;;9.90;;
8675;SDS011;4375;52.486;13.424;2023-03-21T01:00:40;23.33;;;9.43;;
8675;SDS011;4375;52.486;13.424;2023-03-21T01:03:07;27.50;;;10.47;;
8675;SDS011;4375;52.486;13.424;2023-03-21T01:05:36;26.30;;;11.00;;
8675;SDS011;4375;52.486;13.424;2023-03-21T01:08:22;27.53;;;12.53;;
8675;SDS011;4375;52.486;13.424;2023-03-21T01:10:49;30.70;;;11.90;;
8675;SDS011;4375;52.486;13.424;2023-03-21T01:13:16;27.57;;;11.70;;
8675;SDS011;4375;52.486;13.424;2023-03-21T01:15:47;30.10;;;12.57;;
8675;SDS011;4375;52.486;13.424;2023-03-21T01:18:19;27.60;;;12.30;;
8675;SDS011;4375;52.486;13.424;2023-03-21T01:20:48;30.83;;;12.70;;
8675;SDS011;4375;52.486;13.424;2023-03-21T01:23:14;32.20;;;13.57;;
8675;SDS011;4375;52.486;13.424;2023-03-21T01:25:40;28.97;;;13.00;;
8675;SDS011;4375;52.486;13.424;2023-03-21T01:28:06;29.47;;;13.20;;
8675;SDS011;4375;52.486;13.424;2023-03-21T01:30:32;31.57;;;14.07;;
8675;SDS011;4375;52.486;13.424;2023-03-21T01:32:58;28.83;;;13.10;;
8675;SDS011;4375;52.486;13.424;2023-03-21T01:35:23;29.70;;;13.40;;
8675;SDS011;4375;52.486;13.424;2023-03-21T01:37:49;37.60;;;15.50;;
8675;SDS011;4375;52.486;13.424;2023-03-21T01:40:16;32.63;;;14.33;;
8675;SDS011;4375;52.486;13.424;2023-03-21T01:42:45;27.90;;;13.70;;
8675;SDS011;4375;52.486;13.424;2023-03-21T01:48:14;33.30;;;15.47;;
8675;SDS011;4375;52.486;13.424;2023-03-21T01:50:40;31.67;;;14.03;;
8675;SDS011;4375;52.486;13.424;2023-03-21T01:53:07;35.27;;;17.33;;
8675;SDS011;4375;52.486;13.424;2023-03-21T01:55:34;33.60;;;15.67;;
8675;SDS011;4375;52.486;13.424;2023-03-21T01:58:01;32.87;;;16.47;;
8675;SDS011;4375;52.486;13.424;2023-03-21T02:00:28;42.40;;;18.50;;
8675;SDS011;4375;52.486;13.424;2023-03-21T02:02:55;35.13;;;17.47;;
8675;SDS011;4375;52.486;13.424;2023-03-21T02:05:36;37.43;;;18.37;;
8675;SDS011;4375;52.486;13.424;2023-03-21T02:08:20;41.93;;;18.57;;
8675;SDS011;4375;52.486;13.424;2023-03-21T02:10:47;40.60;;;19.50;;
8675;SDS011;4375;52.486;13.424;2023-03-21T02:13:14;40.77;;;20.73;;
8675;SDS011;4375;52.486;13.424;2023-03-21T02:15:41;37.27;;;19.40;;
8675;SDS011;4375;52.486;13.424;2023-03-21T02:18:37;41.97;;;19.60;;
8675;SDS011;4375;52.486;13.424;2023-03-21T02:38:31;38.17;;;20.37;;
8675;SDS011;4375;52.486;13.424;2023-03-21T02:43:53;42.67;;;21.00;;
8675;SDS011;4375;52.486;13.424;2023-03-21T02:46:49;40.90;;;20.90;;
8675;SDS011;4375;52.486;13.424;2023-03-21T02:49:41;41.23;;;20.83;;
8675;SDS011;4375;52.486;13.424;2023-03-21T02:52:28;45.43;;;19.77;;
8675;SDS011;4375;52.486;13.424;2023-03-21T02:54:57;45.80;;;20.50;;
8675;SDS011;4375;52.486;13.424;2023-03-21T02:57:28;41.03;;;20.63;;
8675;SDS011;4375;52.486;13.424;2023-03-21T02:59:56;42.37;;;19.73;;
8675;SDS011;4375;52.486;13.424;2023-03-21T03:02:23;41.27;;;20.70;;
8675;SDS011;4375;52.486;13.424;2023-03-21T03:04:52;42.57;;;20.93;;
8675;SDS011;4375;52.486;13.424;2023-03-21T03:07:38;43.93;;;21.53;;
8675;SDS011;4375;52.486;13.424;2023-03-21T03:10:33;38.60;;;19.60;;
8675;SDS011;4375;52.486;13.424;2023-03-21T03:13:20;48.90;;;21.87;;
8675;SDS011;4375;52.486;13.424;2023-03-21T03:16:03;38.00;;;18.77;;
8675;SDS011;4375;52.486;13.424;2023-03-21T03:18:40;44.40;;;20.80;;
8675;SDS011;4375;52.486;13.424;2023-03-21T03:21:37;40.47;;;20.90;;
8675;SDS011;4375;52.486;13.424;2023-03-21T03:24:15;52.97;;;20.93;;
8675;SDS011;4375;52.486;13.424;2023-03-21T03:27:05;47.80;;;21.87;;
8675;SDS011;4375;52.486;13.424;2023-03-21T03:29:36;44.00;;;22.50;;
8675;SDS011;4375;52.486;13.424;2023-03-21T03:32:12;44.23;;;20.60;;
8675;SDS011;4375;52.486;13.424;2023-03-21T03:34:50;40.90;;;20.70;;
8675;SDS011;4375;52.486;13.424;2023-03-21T03:37:20;44.60;;;20.60;;
8675;SDS011;4375;52.486;13.424;2023-03-21T03:39:59;42.50;;;20.93;;
8675;SDS011;4375;52.486;13.424;2023-03-21T03:42:33;42.93;;;20.57;;
8675;SDS011;4375;52.486;13.424;2023-03-21T03:45:02;45.27;;;22.50;;
8675;SDS011;4375;52.486;13.424;2023-03-21T03:47:33;43.00;;;20.20;;
8675;SDS011;4375;52.486;13.424;2023-03-21T03:55:40;38.67;;;19.97;;
8675;SDS011;4375;52.486;13.424;2023-03-21T03:58:07;42.97;;;21.70;;
8675;SDS011;4375;52.486;13.424;2023-03-21T04:00:33;46.00;;;22.10;;
8675;SDS011;4375;52.486;13.424;2023-03-21T04:02:59;42.93;;;21.20;;
8675;SDS011;4375;52.486;13.424;2023-03-21T04:05:25;44.23;;;20.80;;
8675;SDS011;4375;52.486;13.424;2023-03-21T04:07:51;42.10;;;20.80;;
8675;SDS011;4375;52.486;13.424;2023-03-21T04:10:18;43.73;;;21.90;;
8675;SDS011;4375;52.486;13.424;2023-03-21T04:12:45;42.30;;;20.93;;
8675;SDS011;4375;52.486;13.424;2023-03-21T04:15:10;42.17;;;19.90;;
8675;SDS011;4375;52.486;13.424;2023-03-21T04:17:36;48.07;;;21.70;;
8675;SDS011;4375;52.486;13.424;2023-03-21T04:20:03;46.10;;;20.47;;
8675;SDS011;4375;52.486;13.424;2023-03-21T04:22:31;42.00;;;22.40;;
8675;SDS011;4375;52.486;13.424;2023-03-21T04:24:57;42.63;;;20.57;;
8675;SDS011;4375;52.486;13.424;2023-03-21T04:27:23;40.60;;;20.67;;
8675;SDS011;4375;52.486;13.424;2023-03-21T04:29:49;40.07;;;19.80;;
8675;SDS011;4375;52.486;13.424;2023-03-21T04:32:14;44.30;;;19.20;;
8675;SDS011;4375;52.486;13.424;2023-03-21T04:34:42;42.93;;;20.20;;
8675;SDS011;4375;52.486;13.424;2023-03-21T04:37:15;48.87;;;21.33;;
8675;SDS011;4375;52.486;13.424;2023-03-21T04:39:47;46.60;;;20.93;;
8675;SDS011;4375;52.486;13.424;2023-03-21T04:42:14;40.70;;;19.13;;
8675;SDS011;4375;52.486;13.424;2023-03-21T04:44:42;47.00;;;21.50;;
8675;SDS011;4375;52.486;13.424;2023-03-21T04:47:08;48.57;;;22.23;;
8675;SDS011;4375;52.486;13.424;2023-03-21T04:49:35;54.40;;;20.73;;
8675;SDS011;4375;52.486;13.424;2023-03-21T04:52:00;46.20;;;21.53;;
8675;SDS011;4375;52.486;13.424;2023-03-21T04:54:26;51.27;;;20.63;;
8675;SDS011;4375;52.486;13.424;2023-03-21T04:56:52;51.70;;;21.80;;
8675;SDS011;4375;52.486;13.424;2023-03-21T04:59:18;41.97;;;19.23;;
8675;SDS011;4375;52.486;13.424;2023-03-21T05:01:45;53.33;;;19.90;;
8675;SDS011;4375;52.486;13.424;2023-03-21T05:04:12;43.03;;;19.97;;
8675;SDS011;4375;52.486;13.424;2023-03-21T05:06:38;44.83;;;20.07;;
8675;SDS011;4375;52.486;13.424;2023-03-21T05:09:06;45.93;;;20.23;;
8675;SDS011;4375;52.486;13.424;2023-03-21T05:11:33;44.00;;;18.93;;
8675;SDS011;4375;52.486;13.424;2023-03-21T05:14:02;42.83;;;18.70;;
8675;SDS011;4375;52.486;13.424;2023-03-21T05:16:33;47.07;;;19.87;;
8675;SDS011;4375;52.486;13.424;2023-03-21T05:19:00;44.10;;;18.67;;
8675;SDS011;4375;52.486;13.424;2023-03-21T05:21:32;44.40;;;20.60;;
8675;SDS011;4375;52.486;13.424;2023-03-21T05:24:05;44.97;;;19.93;;
8675;SDS011;4375;52.486;13.424;2023-03-21T05:26:42;44.37;;;19.03;;
8675;SDS011;4375;52.486;13.424;2023-03-21T05:29:08;44.83;;;19.27;;
8675;SDS011;4375;52.486;13.424;2023-03-21T05:31:34;43.97;;;20.50;;
8675;SDS011;4375;52.486;13.424;2023-03-21T05:34:00;41.03;;;18.07;;
8675;SDS011;4375;52.486;13.424;2023-03-21T05:36:26;43.10;;;20.73;;
8675;SDS011;4375;52.486;13.424;2023-03-21T05:38:52;46.17;;;19.93;;
8675;SDS011;4375;52.486;13.424;2023-03-21T05:41:17;40.43;;;18.77;;
8675;SDS011;4375;52.486;13.424;2023-03-21T05:43:45;41.47;;;19.40;;
8675;SDS011;4375;52.486;13.424;2023-03-21T05:46:11;43.53;;;19.07;;
8675;SDS011;4375;52.486;13.424;2023-03-21T05:48:37;42.43;;;19.30;;
8675;SDS011;4375;52.486;13.424;2023-03-21T05:51:03;43.87;;;20.40;;
8675;SDS011;4375;52.486;13.424;2023-03-21T05:53:29;45.80;;;18.90;;
8675;SDS011;4375;52.486;13.424;2023-03-21T05:55:55;47.37;;;20.57;;
8675;SDS011;4375;52.486;13.424;2023-03-21T05:58:21;42.27;;;20.73;;
8675;SDS011;4375;52.486;13.424;2023-03-21T06:00:47;41.73;;;19.23;;
8675;SDS011;4375;52.486;13.424;2023-03-21T06:03:12;45.20;;;21.27;;
8675;SDS011;4375;52.486;13.424;2023-03-21T06:05:38;47.27;;;20.80;;
8675;SDS011;4375;52.486;13.424;2023-03-21T06:08:04;44.00;;;19.73;;
8675;SDS011;4375;52.486;13.424;2023-03-21T06:10:30;49.77;;;21.17;;
8675;SDS011;4375;52.486;13.424;2023-03-21T06:12:56;43.83;;;20.07;;
8675;SDS011;4375;52.486;13.424;2023-03-21T06:15:21;46.40;;;19.83;;
8675;SDS011;4375;52.486;13.424;2023-03-21T06:17:47;50.87;;;21.00;;
8675;SDS011;4375;52.486;13.424;2023-03-21T06:20:13;45.90;;;21.10;;
8675;SDS011;4375;52.486;13.424;2023-03-21T06:22:39;47.63;;;21.37;;
8675;SDS011;4375;52.486;13.424;2023-03-21T06:25:05;46.20;;;20.50;;
8675;SDS011;4375;52.486;13.424;2023-03-21T06:27:31;50.90;;;20.67;;
8675;SDS011;4375;52.486;13.424;2023-03-21T06:29:58;47.33;;;21.80;;
8675;SDS011;4375;52.486;13.424;2023-03-21T06:32:23;43.40;;;19.37;;
8675;SDS011;4375;52.486;13.424;2023-03-21T06:34:50;48.13;;;21.20;;
8675;SDS011;4375;52.486;13.424;2023-03-21T06:37:16;48.10;;;22.20;;
8675;SDS011;4375;52.486;13.424;2023-03-21T06:39:42;42.80;;;19.03;;
8675;SDS011;4375;52.486;13.424;2023-03-21T06:42:07;49.70;;;21.33;;
8675;SDS011;4375;52.486;13.424;2023-03-21T06:44:33;47.40;;;20.80;;
8675;SDS011;4375;52.486;13.424;2023-03-21T06:46:59;43.27;;;20.80;;
8675;SDS011;4375;52.486;13.424;2023-03-21T06:49:25;53.53;;;20.90;;
8675;SDS011;4375;52.486;13.424;2023-03-21T06:51:51;46.97;;;19.57;;
8675;SDS011;4375;52.486;13.424;2023-03-21T06:54:17;47.70;;;19.87;;
8675;SDS011;4375;52.486;13.424;2023-03-21T06:56:44;50.27;;;22.87;;
8675;SDS011;4375;52.486;13.424;2023-03-21T06:59:10;43.10;;;20.70;;
8675;SDS011;4375;52.486;13.424;2023-03-21T07:01:36;49.63;;;21.50;;
8675;SDS011;4375;52.486;13.424;2023-03-21T07:04:02;43.70;;;19.27;;
8675;SDS011;4375;52.486;13.424;2023-03-21T07:06:28;49.50;;;19.77;;
8675;SDS011;4375;52.486;13.424;2023-03-21T07:08:54;44.93;;;20.23;;
8675;SDS011;4375;52.486;13.424;2023-03-21T07:11:21;52.60;;;21.83;;
8675;SDS011;4375;52.486;13.424;2023-03-21T07:13:48;47.93;;;21.13;;
8675;SDS011;4375;52.486;13.424;2023-03-21T07:16:14;56.03;;;22.67;;
8675;SDS011;4375;52.486;13.424;2023-03-21T07:18:41;49.80;;;21.90;;
8675;SDS011;4375;52.486;13.424;2023-03-21T07:21:28;49.60;;;21.90;;
8675;SDS011;4375;52.486;13.424;2023-03-21T07:23:53;49.37;;;21.77;;
8675;SDS011;4375;52.486;13.424;2023-03-21T07:26:25;50.87;;;23.30;;
8675;SDS011;4375;52.486;13.424;2023-03-21T07:28:51;48.50;;;22.20;;
8675;SDS011;4375;52.486;13.424;2023-03-21T07:31:17;50.37;;;23.67;;
8675;SDS011;4375;52.486;13.424;2023-03-21T07:33:43;51.77;;;23.10;;
8675;SDS011;4375;52.486;13.424;2023-03-21T07:36:11;51.50;;;23.03;;
8675;SDS011;4375;52.486;13.424;2023-03-21T07:38:39;51.73;;;21.83;;
8675;SDS011;4375;52.486;13.424;2023-03-21T07:41:05;49.60;;;22.20;;
8675;SDS011;4375;52.486;13.424;2023-03-21T07:43:30;50.10;;;22.33;;
8675;SDS011;4375;52.486;13.424;2023-03-21T07:45:56;47.07;;;21.13;;
8675;SDS011;4375;52.486;13.424;2023-03-21T07:48:22;47.60;;;21.13;;
8675;SDS011;4375;52.486;13.424;2023-03-21T07:50:48;47.90;;;22.23;;
8675;SDS011;4375;52.486;13.424;2023-03-21T07:53:14;47.57;;;21.50;;
8675;SDS011;4375;52.486;13.424;2023-03-21T07:55:40;53.60;;;22.13;;
8675;SDS011;4375;52.486;13.424;2023-03-21T07:58:06;45.97;;;21.53;;
8675;SDS011;4375;52.486;13.424;2023-03-21T08:00:32;46.40;;;21.60;;
8675;SDS011;4375;52.486;13.424;2023-03-21T08:02:57;48.43;;;21.60;;
8675;SDS011;4375;52.486;13.424;2023-03-21T08:05:28;47.80;;;21.67;;
8675;SDS011;4375;52.486;13.424;2023-03-21T08:07:57;51.03;;;19.57;;
8675;SDS011;4375;52.486;13.424;2023-03-21T08:10:23;48.57;;;20.90;;
8675;SDS011;4375;52.486;13.424;2023-03-21T08:12:49;44.20;;;19.73;;
8675;SDS011;4375;52.486;13.424;2023-03-21T08:15:15;43.40;;;19.47;;
8675;SDS011;4375;52.486;13.424;2023-03-21T08:17:41;50.47;;;22.40;;
8675;SDS011;4375;52.486;13.424;2023-03-21T08:20:10;45.43;;;19.67;;
8675;SDS011;4375;52.486;13.424;2023-03-21T08:22:37;49.37;;;22.30;;
8675;SDS011;4375;52.486;13.424;2023-03-21T08:25:03;49.20;;;21.97;;
8675;SDS011;4375;52.486;13.424;2023-03-21T08:27:32;47.43;;;21.47;;
8675;SDS011;4375;52.486;13.424;2023-03-21T08:29:58;50.60;;;21.73;;
8675;SDS011;4375;52.486;13.424;2023-03-21T08:32:24;43.97;;;20.10;;
8675;SDS011;4375;52.486;13.424;2023-03-21T08:34:54;46.27;;;22.23;;
8675;SDS011;4375;52.486;13.424;2023-03-21T08:37:22;46.23;;;21.43;;
8675;SDS011;4375;52.486;13.424;2023-03-21T08:39:48;48.23;;;21.23;;
8675;SDS011;4375;52.486;13.424;2023-03-21T08:42:14;44.73;;;20.30;;
8675;SDS011;4375;52.486;13.424;2023-03-21T08:44:40;43.43;;;20.30;;
8675;SDS011;4375;52.486;13.424;2023-03-21T08:47:06;49.17;;;21.23;;
8675;SDS011;4375;52.486;13.424;2023-03-21T08:49:33;46.37;;;20.70;;
8675;SDS011;4375;52.486;13.424;2023-03-21T08:51:59;48.60;;;20.83;;
8675;SDS011;4375;52.486;13.424;2023-03-21T08:54:25;46.97;;;20.33;;
8675;SDS011;4375;52.486;13.424;2023-03-21T08:56:51;45.30;;;21.80;;
8675;SDS011;4375;52.486;13.424;2023-03-21T08:59:17;43.73;;;19.83;;
8675;SDS011;4375;52.486;13.424;2023-03-21T09:01:43;42.97;;;20.93;;
8675;SDS011;4375;52.486;13.424;2023-03-21T09:04:09;40.30;;;18.17;;
8675;SDS011;4375;52.486;13.424;2023-03-21T09:06:36;47.50;;;21.10;;
8675;SDS011;4375;52.486;13.424;2023-03-21T09:09:02;45.23;;;19.53;;
8675;SDS011;4375;52.486;13.424;2023-03-21T09:11:31;45.17;;;20.00;;
8675;SDS011;4375;52.486;13.424;2023-03-21T09:13:57;46.00;;;17.83;;
8675;SDS011;4375;52.486;13.424;2023-03-21T09:16:23;42.70;;;18.70;;
8675;SDS011;4375;52.486;13.424;2023-03-21T09:18:49;42.80;;;17.80;;
8675;SDS011;4375;52.486;13.424;2023-03-21T09:21:19;44.60;;;18.80;;
8675;SDS011;4375;52.486;13.424;2023-03-21T09:23:47;39.23;;;18.50;;
8675;SDS011;4375;52.486;13.424;2023-03-21T09:26:19;44.30;;;19.50;;
8675;SDS011;4375;52.486;13.424;2023-03-21T09:28:45;53.70;;;20.07;;
8675;SDS011;4375;52.486;13.424;2023-03-21T09:31:12;45.00;;;19.73;;
8675;SDS011;4375;52.486;13.424;2023-03-21T09:33:40;44.67;;;18.53;;
8675;SDS011;4375;52.486;13.424;2023-03-21T09:36:08;41.77;;;17.80;;
8675;SDS011;4375;52.486;13.424;2023-03-21T09:38:42;50.40;;;19.43;;
8675;SDS011;4375;52.486;13.424;2023-03-21T09:46:59;43.37;;;18.50;;
8675;SDS011;4375;52.486;13.424;2023-03-21T09:49:39;38.80;;;17.90;;
8675;SDS011;4375;52.486;13.424;2023-03-21T09:52:16;41.33;;;19.10;;
8675;SDS011;4375;52.486;13.424;2023-03-21T09:54:48;43.17;;;18.80;;
8675;SDS011;4375;52.486;13.424;2023-03-21T09:59:53;38.83;;;16.50;;
8675;SDS011;4375;52.486;13.424;2023-03-21T10:02:38;53.93;;;20.80;;
8675;SDS011;4375;52.486;13.424;2023-03-21T10:05:22;43.30;;;18.33;;
8675;SDS011;4375;52.486;13.424;2023-03-21T10:10:29;44.20;;;20.47;;
8675;SDS011;4375;52.486;13.424;2023-03-21T10:13:01;40.97;;;17.40;;
8675;SDS011;4375;52.486;13.424;2023-03-21T10:15:31;38.93;;;18.40;;
8675;SDS011;4375;52.486;13.424;2023-03-21T10:18:00;42.27;;;19.10;;
8675;SDS011;4375;52.486;13.424;2023-03-21T10:20:48;41.00;;;19.17;;
8675;SDS011;4375;52.486;13.424;2023-03-21T10:23:15;41.77;;;18.90;;
8675;SDS011;4375;52.486;13.424;2023-03-21T10:25:45;41.80;;;19.23;;
8675;SDS011;4375;52.486;13.424;2023-03-21T10:28:16;43.40;;;19.97;;
8675;SDS011;4375;52.486;13.424;2023-03-21T10:30:45;46.90;;;19.70;;
8675;SDS011;4375;52.486;13.424;2023-03-21T10:33:22;44.97;;;20.27;;
8675;SDS011;4375;52.486;13.424;2023-03-21T10:35:51;47.53;;;20.63;;
8675;SDS011;4375;52.486;13.424;2023-03-21T10:38:20;43.40;;;18.77;;
8675;SDS011;4375;52.486;13.424;2023-03-21T10:40:49;43.73;;;17.50;;
8675;SDS011;4375;52.486;13.424;2023-03-21T10:43:17;39.10;;;18.17;;
8675;SDS011;4375;52.486;13.424;2023-03-21T10:45:44;39.57;;;18.43;;
8675;SDS011;4375;52.486;13.424;2023-03-21T10:48:11;40.20;;;17.53;;
8675;SDS011;4375;52.486;13.424;2023-03-21T10:50:37;40.13;;;17.10;;
8675;SDS011;4375;52.486;13.424;2023-03-21T10:53:02;38.30;;;17.50;;
8675;SDS011;4375;52.486;13.424;2023-03-21T10:55:51;40.63;;;17.07;;
8675;SDS011;4375;52.486;13.424;2023-03-21T10:58:21;38.30;;;17.20;;
8675;SDS011;4375;52.486;13.424;2023-03-21T11:01:00;38.03;;;16.30;;
8675;SDS011;4375;52.486;13.424;2023-03-21T11:03:31;39.67;;;17.03;;
8675;SDS011;4375;52.486;13.424;2023-03-21T11:06:01;37.10;;;16.80;;
8675;SDS011;4375;52.486;13.424;2023-03-21T11:08:37;42.37;;;17.07;;
8675;SDS011;4375;52.486;13.424;2023-03-21T11:11:06;40.73;;;16.40;;
8675;SDS011;4375;52.486;13.424;2023-03-21T11:13:37;38.57;;;16.20;;
8675;SDS011;4375;52.486;13.424;2023-03-21T11:16:11;42.10;;;19.07;;
8675;SDS011;4375;52.486;13.424;2023-03-21T11:18:50;43.33;;;17.63;;
8675;SDS011;4375;52.486;13.424;2023-03-21T11:21:20;37.50;;;17.20;;
8675;SDS011;4375;52.486;13.424;2023-03-21T11:23:51;36.03;;;15.87;;
8675;SDS011;4375;52.486;13.424;2023-03-21T11:29:32;39.23;;;17.30;;
8675;SDS011;4375;52.486;13.424;2023-03-21T11:34:45;42.00;;;17.60;;
8675;SDS011;4375;52.486;13.424;2023-03-21T11:40:34;38.80;;;16.07;;
8675;SDS011;4375;52.486;13.424;2023-03-21T11:45:42;38.60;;;16.30;;
8675;SDS011;4375;52.486;13.424;2023-03-21T11:55:46;36.77;;;15.43;;
8675;SDS011;4375;52.486;13.424;2023-03-21T11:58:22;35.83;;;14.73;;
8675;SDS011;4375;52.486;13.424;2023-03-21T12:14:23;36.00;;;14.93;;
8675;SDS011;4375;52.486;13.424;2023-03-21T12:24:52;33.97;;;15.33;;
8675;SDS011;4375;52.486;13.424;2023-03-21T12:32:59;38.53;;;16.33;;
8675;SDS011;4375;52.486;13.424;2023-03-21T12:38:07;31.77;;;14.50;;
8675;SDS011;4375;52.486;13.424;2023-03-21T12:43:23;30.83;;;13.00;;
8675;SDS011;4375;52.486;13.424;2023-03-21T12:46:04;32.77;;;14.07;;
8675;SDS011;4375;52.486;13.424;2023-03-21T12:51:22;32.87;;;15.30;;
8675;SDS011;4375;52.486;13.424;2023-03-21T12:56:48;31.40;;;13.83;;
8675;SDS011;4375;52.486;13.424;2023-03-21T12:59:27;36.83;;;14.60;;
8675;SDS011;4375;52.486;13.424;2023-03-21T13:02:15;32.30;;;13.97;;
8675;SDS011;4375;52.486;13.424;2023-03-21T13:04:46;35.30;;;14.30;;
8675;SDS011;4375;52.486;13.424;2023-03-21T13:07:20;34.97;;;13.53;;
8675;SDS011;4375;52.486;13.424;2023-03-21T13:09:49;32.87;;;14.30;;
8675;SDS011;4375;52.486;13.424;2023-03-21T13:12:24;35.07;;;14.40;;
8675;SDS011;4375;52.486;13.424;2023-03-21T13:15:11;33.70;;;14.63;;
8675;SDS011;4375;52.486;13.424;2023-03-21T13:17:48;35.80;;;14.03;;
8675;SDS011;4375;52.486;13.424;2023-03-21T13:20:43;39.30;;;14.37;;
8675;SDS011;4375;52.486;13.424;2023-03-21T13:23:14;31.07;;;12.67;;
8675;SDS011;4375;52.486;13.424;2023-03-21T13:25:47;26.00;;;10.50;;
8675;SDS011;4375;52.486;13.424;2023-03-21T13:28:19;26.07;;;10.03;;
8675;SDS011;4375;52.486;13.424;2023-03-21T13:30:46;29.47;;;11.13;;
8675;SDS011;4375;52.486;13.424;2023-03-21T13:33:14;28.10;;;10.73;;
8675;SDS011;4375;52.486;13.424;2023-03-21T13:35:52;27.13;;;9.80;;
8675;SDS011;4375;52.486;13.424;2023-03-21T13:38:31;25.90;;;9.77;;
8675;SDS011;4375;52.486;13.424;2023-03-21T13:59:10;27.73;;;10.80;;
8675;SDS011;4375;52.486;13.424;2023-03-21T14:01:58;28.80;;;10.90;;
8675;SDS011;4375;52.486;13.424;2023-03-21T14:04:28;26.57;;;10.73;;
8675;SDS011;4375;52.486;13.424;2023-03-21T14:06:57;32.63;;;10.93;;
8675;SDS011;4375;52.486;13.424;2023-03-21T14:09:33;26.73;;;9.57;;
8675;SDS011;4375;52.486;13.424;2023-03-21T14:12:06;26.07;;;10.30;;
8675;SDS011;4375;52.486;13.424;2023-03-21T14:14:42;31.27;;;10.77;;
8675;SDS011;4375;52.486;13.424;2023-03-21T14:17:24;25.30;;;10.80;;
8675;SDS011;4375;52.486;13.424;2023-03-21T14:19:52;26.87;;;9.93;;
8675;SDS011;4375;52.486;13.424;2023-03-21T14:22:20;25.60;;;10.30;;
8675;SDS011;4375;52.486;13.424;2023-03-21T14:27:21;24.60;;;9.60;;
8675;SDS011;4375;52.486;13.424;2023-03-21T14:29:49;28.50;;;9.90;;
8675;SDS011;4375;52.486;13.424;2023-03-21T14:32:17;25.90;;;9.33;;
8675;SDS011;4375;52.486;13.424;2023-03-21T14:34:46;23.47;;;8.93;;
8675;SDS011;4375;52.486;13.424;2023-03-21T14:37:24;25.60;;;9.33;;
8675;SDS011;4375;52.486;13.424;2023-03-21T14:40:24;23.07;;;9.33;;
8675;SDS011;4375;52.486;13.424;2023-03-21T14:42:51;30.37;;;10.70;;
8675;SDS011;4375;52.486;13.424;2023-03-21T14:47:55;26.00;;;10.03;;
8675;SDS011;4375;52.486;13.424;2023-03-21T14:50:29;26.90;;;11.73;;
8675;SDS011;4375;52.486;13.424;2023-03-21T14:52:56;28.27;;;11.90;;
8675;SDS011;4375;52.486;13.424;2023-03-21T14:55:22;25.80;;;11.27;;
8675;SDS011;4375;52.486;13.424;2023-03-21T14:57:48;27.87;;;10.37;;
8675;SDS011;4375;52.486;13.424;2023-03-21T15:00:20;25.00;;;9.80;;
8675;SDS011;4375;52.486;13.424;2023-03-21T15:02:51;27.50;;;9.43;;
8675;SDS011;4375;52.486;13.424;2023-03-21T15:05:22;25.70;;;9.67;;
8675;SDS011;4375;52.486;13.424;2023-03-21T15:07:56;25.63;;;9.80;;
8675;SDS011;4375;52.486;13.424;2023-03-21T15:10:24;26.80;;;9.67;;
8675;SDS011;4375;52.486;13.424;2023-03-21T15:12:52;31.27;;;9.90;;
8675;SDS011;4375;52.486;13.424;2023-03-21T15:15:20;23.57;;;9.70;;
8675;SDS011;4375;52.486;13.424;2023-03-21T15:17:48;23.90;;;9.27;;
8675;SDS011;4375;52.486;13.424;2023-03-21T15:20:16;23.40;;;8.50;;
8675;SDS011;4375;52.486;13.424;2023-03-21T15:22:54;27.20;;;9.83;;
8675;SDS011;4375;52.486;13.424;2023-03-21T15:25:24;23.70;;;8.87;;
8675;SDS011;4375;52.486;13.424;2023-03-21T15:27:53;22.50;;;9.43;;
8675;SDS011;4375;52.486;13.424;2023-03-21T15:30:24;21.83;;;9.30;;
8675;SDS011;4375;52.486;13.424;2023-03-21T15:32:52;23.07;;;9.23;;
8675;SDS011;4375;52.486;13.424;2023-03-21T15:35:29;22.40;;;8.90;;
8675;SDS011;4375;52.486;13.424;2023-03-21T15:37:59;24.77;;;9.73;;
8675;SDS011;4375;52.486;13.424;2023-03-21T15:40:26;28.40;;;8.70;;
8675;SDS011;4375;52.486;13.424;2023-03-21T15:45:46;26.43;;;8.50;;
8675;SDS011;4375;52.486;13.424;2023-03-21T15:48:13;23.37;;;8.13;;
8675;SDS011;4375;52.486;13.424;2023-03-21T15:51:02;24.47;;;8.83;;
8675;SDS011;4375;52.486;13.424;2023-03-21T15:53:27;24.17;;;8.77;;
8675;SDS011;4375;52.486;13.424;2023-03-21T15:55:57;23.27;;;9.23;;
8675;SDS011;4375;52.486;13.424;2023-03-21T15:58:27;27.80;;;10.30;;
8675;SDS011;4375;52.486;13.424;2023-03-21T16:01:00;23.33;;;8.93;;
8675;SDS011;4375;52.486;13.424;2023-03-21T16:03:30;27.67;;;10.30;;
8675;SDS011;4375;52.486;13.424;2023-03-21T16:08:43;23.43;;;9.67;;
8675;SDS011;4375;52.486;13.424;2023-03-21T16:13:39;27.50;;;11.73;;
8675;SDS011;4375;52.486;13.424;2023-03-21T16:16:05;25.67;;;9.83;;
8675;SDS011;4375;52.486;13.424;2023-03-21T16:18:31;26.27;;;11.83;;
8675;SDS011;4375;52.486;13.424;2023-03-21T16:20:56;25.77;;;12.73;;
8675;SDS011;4375;52.486;13.424;2023-03-21T16:23:23;26.70;;;11.70;;
8675;SDS011;4375;52.486;13.424;2023-03-21T16:25:50;33.30;;;13.73;;
8675;SDS011;4375;52.486;13.424;2023-03-21T16:28:21;32.60;;;15.13;;
8675;SDS011;4375;52.486;13.424;2023-03-21T16:30:47;31.20;;;14.87;;
8675;SDS011;4375;52.486;13.424;2023-03-21T16:33:13;31.30;;;14.30;;
8675;SDS011;4375;52.486;13.424;2023-03-21T16:35:39;28.43;;;13.60;;
8675;SDS011;4375;52.486;13.424;2023-03-21T16:38:05;27.10;;;13.80;;
8675;SDS011;4375;52.486;13.424;2023-03-21T16:40:35;31.83;;;13.80;;
8675;SDS011;4375;52.486;13.424;2023-03-21T16:43:04;32.37;;;13.40;;
8675;SDS011;4375;52.486;13.424;2023-03-21T16:45:30;33.10;;;15.40;;
8675;SDS011;4375;52.486;13.424;2023-03-21T16:47:56;31.80;;;14.67;;
8675;SDS011;4375;52.486;13.424;2023-03-21T16:50:44;30.80;;;14.63;;
8675;SDS011;4375;52.486;13.424;2023-03-21T16:53:10;31.73;;;14.60;;
8675;SDS011;4375;52.486;13.424;2023-03-21T16:55:36;29.80;;;13.90;;
8675;SDS011;4375;52.486;13.424;2023-03-21T16:58:03;31.40;;;16.03;;
8675;SDS011;4375;52.486;13.424;2023-03-21T17:00:30;34.47;;;15.60;;